Time;durP1;ratioP1;P1;durP2;ratioP2;P2;SDS_P1;SDS_P2;PMS_P1;PMS_P2;Temp;Humidity;BMP_temperature;BMP_pressure;BME280_temperature;BME280_humidity;BME280_pressure;Samples;Min_cycle;Max_cycle;Signal;HPM_P1;HPM_P2
2023/06/28 00:00:20;;;;;;;;;12.25;10.00;;;;;21.15;42.21;101742.00;4949957;28;46796;-96
2023/06/28 00:02:48;;;;;;;;;11.33;7.67;;;;;21.15;42.25;101738.53;4939281;28;44708;-96
2023/06/28 00:05:14;;;;;;;;;8.33;8.33;;;;;21.31;42.06;101773.63;4942565;28;44754;-96
2023/06/28 00:07:40;;;;;;;;;9.00;9.00;;;;;21.07;42.22;101731.09;4949358;28;45242;-96
2023/06/28 00:10:06;;;;;;;;;9.33;6.33;;;;;21.03;42.34;101722.50;4948277;28;45522;-96
2023/06/28 00:12:32;;;;;;;;;9.00;7.00;;;;;21.02;41.82;101722.59;4947284;28;44797;-96
2023/06/28 00:15:02;;;;;;;;;8.00;8.00;;;;;20.99;42.13;101731.59;4947821;28;44948;-96
2023/06/28 00:17:27;;;;;;;;;10.00;9.25;;;;;20.96;42.24;101727.34;4963978;28;45265;-93
2023/06/28 00:19:59;;;;;;;;;11.25;10.00;;;;;21.11;42.38;101752.91;4971778;28;46993;-96
2023/06/28 00:22:29;;;;;;;;;9.75;8.00;;;;;20.87;42.46;101720.00;4938455;28;44798;-96
2023/06/28 00:24:59;;;;;;;;;6.67;6.00;;;;;20.84;42.29;101714.88;4919274;28;44852;-96
2023/06/28 00:27:25;;;;;;;;;6.00;5.00;;;;;20.80;42.46;101722.16;4935604;28;45218;-96
2023/06/28 00:29:51;;;;;;;;;4.33;4.00;;;;;20.75;42.45;101710.16;4934061;28;45903;-96
2023/06/28 00:32:17;;;;;;;;;3.00;3.00;;;;;20.81;42.73;101733.59;4948077;28;44964;-96
2023/06/28 00:34:42;;;;;;;;;6.00;5.00;;;;;20.70;42.54;101713.13;4931926;28;44761;-96
2023/06/28 00:37:08;;;;;;;;;7.00;4.67;;;;;20.74;42.69;101725.19;4931426;28;44867;-96
2023/06/28 00:39:36;;;;;;;;;5.00;5.00;;;;;20.86;43.04;101751.81;4932483;28;45492;-96
2023/06/28 15:41:30;;;;;;;;;17.50;17.00;;;;;29.10;32.88;101422.75;4151595;27;47621;-87
2023/06/28 15:43:55;;;;;;;;;19.50;18.25;;;;;29.07;32.74;101420.41;4902015;28;45319;-90
2023/06/28 15:46:31;;;;;;;;;15.75;15.75;;;;;29.00;33.06;101414.00;4897017;29;46366;-87
2023/06/28 15:48:57;;;;;;;;;17.75;17.00;;;;;28.99;33.20;101417.69;4916545;28;45367;-89
2023/06/28 15:51:22;;;;;;;;;18.00;17.00;;;;;28.97;33.20;101417.00;4901062;29;45475;-91
2023/06/28 15:53:47;;;;;;;;;19.50;17.75;;;;;28.92;33.50;101417.47;4899133;28;46351;-91
2023/06/28 15:56:13;;;;;;;;;19.25;16.00;;;;;28.92;33.15;101414.78;4893990;29;45444;-91
2023/06/28 15:58:38;;;;;;;;;19.50;18.75;;;;;28.87;33.42;101417.16;4892364;29;45676;-92
2023/06/28 16:01:14;;;;;;;;;21.00;18.75;;;;;28.84;33.35;101409.38;4900869;28;45569;-91
2023/06/28 16:03:39;;;;;;;;;18.50;16.75;;;;;28.74;33.64;101410.34;4897837;28;45535;-90
2023/06/28 16:06:05;;;;;;;;;17.50;16.50;;;;;28.72;33.73;101409.66;4901190;28;46568;-90
2023/06/28 16:08:30;;;;;;;;;19.75;17.00;;;;;28.66;33.38;101400.41;4898245;29;45356;-92
2023/06/28 16:10:56;;;;;;;;;16.50;15.50;;;;;28.67;33.73;101401.25;4899012;29;45426;-91
2023/06/28 16:13:21;;;;;;;;;19.75;19.00;;;;;28.65;33.77;101404.09;4901836;28;45449;-92
2023/06/28 16:15:47;;;;;;;;;20.75;19.75;;;;;28.60;33.76;101394.88;4898440;29;46733;-91
2023/06/28 16:18:14;;;;;;;;;21.50;18.50;;;;;28.61;34.18;101407.25;4901367;28;45789;-91
2023/06/28 16:20:39;;;;;;;;;18.50;17.75;;;;;28.58;33.64;101402.22;4900460;28;45478;-91
2023/06/28 16:23:05;;;;;;;;;16.00;15.75;;;;;28.54;34.14;101399.00;4900636;28;45792;-90
2023/06/28 16:25:30;;;;;;;;;20.50;19.50;;;;;28.47;34.11;101398.81;4899746;28;45549;-91
2023/06/28 16:27:57;;;;;;;;;18.50;17.00;;;;;28.50;33.95;101403.00;4895044;29;45390;-91
2023/06/28 16:30:24;;;;;;;;;16.00;16.00;;;;;28.41;33.93;101389.59;4897952;28;45395;-92
2023/06/28 16:32:49;;;;;;;;;17.00;17.00;;;;;28.44;34.01;101384.91;4887814;29;45420;-91
2023/06/28 16:35:14;;;;;;;;;19.25;19.25;;;;;28.44;34.42;101384.91;4900594;28;46039;-90
2023/06/28 16:37:40;;;;;;;;;18.25;18.25;;;;;28.45;34.24;101381.25;4898108;29;45503;-92
2023/06/28 16:40:06;;;;;;;;;17.00;16.75;;;;;28.41;34.25;101368.16;4899223;29;45461;-92
2023/06/28 16:42:31;;;;;;;;;18.50;16.00;;;;;28.50;34.35;101384.25;4888733;29;45426;-91
2023/06/28 16:44:57;;;;;;;;;20.00;20.00;;;;;28.46;33.70;101373.03;4899894;29;45470;-91
2023/06/28 16:47:23;;;;;;;;;21.75;19.75;;;;;28.51;34.43;101384.13;4898030;29;45451;-91
2023/06/28 16:49:49;;;;;;;;;20.75;18.75;;;;;28.51;34.44;101380.63;4898856;28;45304;-91
2023/06/28 16:52:15;;;;;;;;;22.00;20.00;;;;;28.50;34.71;101374.41;4904615;28;45541;-93
2023/06/28 16:54:40;;;;;;;;;19.67;19.33;;;;;28.49;34.69;101375.41;4900452;29;45478;-92
2023/06/28 16:57:06;;;;;;;;;21.50;18.50;;;;;28.40;34.74;101365.66;4902332;28;45302;-92
2023/06/28 16:59:33;;;;;;;;;21.25;20.00;;;;;28.44;34.39;101371.53;4900648;29;45505;-92
2023/06/28 17:01:58;;;;;;;;;20.50;18.50;;;;;28.39;34.70;101362.16;4901590;28;45291;-93
2023/06/28 17:04:23;;;;;;;;;22.50;21.00;;;;;28.45;34.80;101375.91;4884968;29;46766;-92
2023/06/28 17:06:49;;;;;;;;;20.25;19.75;;;;;28.41;34.73;101368.16;4901760;29;45263;-92
2023/06/28 17:09:16;;;;;;;;;21.75;21.75;;;;;28.45;34.69;101370.53;4905605;28;45367;-92
2023/06/28 17:11:41;;;;;;;;;21.00;20.00;;;;;28.46;34.33;101366.88;4899856;28;45352;-92
2023/06/28 17:14:07;;;;;;;;;24.00;18.75;;;;;28.36;34.38;101359.78;4908836;28;45046;-92
2023/06/28 17:16:34;;;;;;;;;22.00;18.50;;;;;28.37;34.49;101355.28;4903770;28;45429;-91
2023/06/28 17:19:00;;;;;;;;;17.50;16.25;;;;;28.46;34.72;101364.19;4899485;28;45536;-91
2023/06/28 17:21:25;;;;;;;;;20.50;20.50;;;;;28.43;34.55;101354.63;4900563;28;45196;-94
2023/06/28 17:23:51;;;;;;;;;19.25;18.25;;;;;28.47;34.91;101355.16;4900118;28;46304;-93
2023/06/28 17:26:16;;;;;;;;;18.75;18.50;;;;;28.44;34.69;101348.28;4900443;29;45288;-92
2023/06/28 17:28:41;;;;;;;;;25.25;22.75;;;;;28.52;34.48;101359.00;4894102;29;45426;-93
2023/06/28 17:31:07;;;;;;;;;21.50;19.25;;;;;28.52;34.27;101353.66;4897408;28;45296;-91
2023/06/28 17:33:32;;;;;;;;;23.00;20.50;;;;;28.52;34.34;101361.69;4900470;29;45376;-93
2023/06/28 17:35:59;;;;;;;;;19.75;19.50;;;;;28.47;34.92;101349.81;4896301;28;45764;-92
2023/06/28 17:38:24;;;;;;;;;19.75;16.50;;;;;28.48;35.01;101351.47;4900223;28;45384;-92
2023/06/28 17:40:50;;;;;;;;;19.00;19.00;;;;;28.48;34.84;101352.31;4899563;29;45372;-93
2023/06/28 17:43:15;;;;;;;;;21.25;18.25;;;;;28.46;35.16;101356.16;4900316;28;45197;-92
2023/06/28 17:45:41;;;;;;;;;21.75;19.00;;;;;28.41;34.79;101357.47;4904959;28;45481;-92
2023/06/28 17:48:07;;;;;;;;;20.25;20.25;;;;;28.44;34.73;101355.47;4900494;28;45538;-92
2023/06/28 17:50:32;;;;;;;;;27.25;23.50;;;;;28.41;34.42;101361.97;4899652;28;45538;-94
2023/06/28 17:52:58;;;;;;;;;23.00;20.50;;;;;28.35;34.53;101359.94;4897762;29;46975;-93
2023/06/28 17:55:24;;;;;;;;;25.75;21.75;;;;;28.30;34.72;101359.56;4899886;28;45578;-94
2023/06/28 17:57:49;;;;;;;;;22.50;22.00;;;;;28.25;35.25;101366.25;4898589;29;45319;-92
2023/06/28 18:00:15;;;;;;;;;26.75;21.00;;;;;28.24;35.18;101363.72;4901390;28;45286;-93
2023/06/28 18:02:40;;;;;;;;;16.50;16.50;;;;;28.16;34.89;101351.09;4897133;29;48086;-91
2023/06/28 18:05:08;;;;;;;;;23.50;22.25;;;;;28.17;35.26;101359.97;4896245;28;45438;-91
2023/06/28 18:07:34;;;;;;;;;20.75;20.75;;;;;28.19;35.26;101366.00;4898616;29;45318;-92
2023/06/28 18:09:59;;;;;;;;;25.75;21.75;;;;;28.13;35.62;101372.78;4899204;28;45519;-93
2023/06/28 18:12:24;;;;;;;;;29.25;25.75;;;;;28.08;35.38;101364.41;4896024;28;45602;-93
2023/06/28 18:14:50;;;;;;;;;20.75;19.50;;;;;28.01;35.32;101367.69;4899749;28;45353;-92
2023/06/28 18:17:15;;;;;;;;;25.25;23.00;;;;;27.98;35.35;101361.81;4902401;28;45497;-93
2023/06/28 18:19:42;;;;;;;;;25.50;23.00;;;;;27.96;35.52;101366.50;4899801;28;45506;-93
2023/06/28 18:22:07;;;;;;;;;21.50;20.75;;;;;27.94;35.64;101371.16;4902362;28;45454;-93
2023/06/28 18:24:33;;;;;;;;;23.25;21.50;;;;;27.86;35.48;101359.41;4898405;29;45334;-91
2023/06/28 18:26:59;;;;;;;;;24.00;20.50;;;;;27.85;35.74;101362.22;4886546;28;45407;-94
2023/06/28 18:29:25;;;;;;;;;23.50;19.00;;;;;27.83;36.08;101365.06;4894324;28;45399;-94
2023/06/28 18:31:50;;;;;;;;;18.50;18.50;;;;;27.73;35.66;101357.13;4923103;28;45299;-94
2023/06/28 18:34:16;;;;;;;;;22.75;21.00;;;;;27.68;35.96;101347.88;4901361;28;45307;-92
2023/06/28 18:36:42;;;;;;;;;21.25;20.25;;;;;27.72;35.95;101359.97;4903766;28;45343;-93
2023/06/28 18:39:07;;;;;;;;;20.00;19.00;;;;;27.68;36.18;101366.59;4896386;29;45581;-93
2023/06/28 18:41:37;;;;;;;;;23.25;21.00;;;;;27.57;36.30;101363.13;4895841;28;45438;-92
2023/06/28 18:44:05;;;;;;;;;19.50;18.50;;;;;27.56;36.32;101363.28;4904100;29;45359;-92
2023/06/28 18:46:33;;;;;;;;;17.25;16.50;;;;;27.57;36.43;101371.16;4903792;29;45276;-93
2023/06/28 18:48:59;;;;;;;;;23.50;20.75;;;;;27.48;36.73;101362.22;4906596;28;45512;-92
2023/06/28 18:51:24;;;;;;;;;24.75;23.25;;;;;27.48;36.44;101361.38;4902610;28;46789;-92
2023/06/28 18:53:50;;;;;;;;;24.75;22.75;;;;;27.41;36.39;101361.16;4903167;28;45358;-92
2023/06/28 18:56:15;;;;;;;;;22.75;20.00;;;;;27.39;36.61;101360.44;4903510;28;45438;-93
2023/06/28 18:58:40;;;;;;;;;25.25;23.75;;;;;27.34;36.87;101360.91;4893778;28;45401;-94
2023/06/28 19:01:06;;;;;;;;;22.25;22.00;;;;;27.34;37.03;101365.41;4901841;29;46036;-92
2023/06/28 19:03:31;;;;;;;;;21.00;20.00;;;;;27.25;37.13;101358.31;4899983;28;45386;-92
2023/06/28 19:05:56;;;;;;;;;21.75;21.75;;;;;27.23;37.34;101358.44;4901554;28;45250;-94
2023/06/28 19:08:22;;;;;;;;;21.25;20.00;;;;;27.24;37.03;101356.59;4913254;28;45439;-93
2023/06/28 19:10:49;;;;;;;;;28.50;27.50;;;;;27.25;37.28;101361.81;4901127;28;45500;-94
2023/06/28 19:13:14;;;;;;;;;30.50;25.50;;;;;27.20;36.83;101370.28;4903394;28;45201;-94
2023/06/28 19:15:40;;;;;;;;;31.25;26.25;;;;;27.20;37.04;101372.09;4909803;28;44740;-93
2023/06/28 19:18:05;;;;;;;;;27.25;25.25;;;;;27.13;37.29;101365.69;4902173;28;45493;-95
2023/06/28 19:20:31;;;;;;;;;29.25;24.50;;;;;27.11;37.50;101371.16;4899855;29;46842;-92
2023/06/28 19:22:56;;;;;;;;;26.50;24.50;;;;;27.04;37.42;101370.09;4906294;28;45510;-94
2023/06/28 19:25:22;;;;;;;;;31.25;29.00;;;;;27.00;37.94;101376.72;4901083;28;45789;-93
2023/06/28 19:27:48;;;;;;;;;30.25;29.25;;;;;26.94;38.10;101378.97;4907610;28;45468;-93
2023/06/28 19:30:14;;;;;;;;;27.00;26.50;;;;;26.92;38.81;101383.63;4903636;28;45463;-95
2023/06/28 19:32:39;;;;;;;;;27.00;25.25;;;;;26.84;38.30;101380.81;4902805;29;45577;-96
2023/06/28 19:35:05;;;;;;;;;28.25;26.00;;;;;26.80;38.85;101382.13;4902211;28;45513;-93
2023/06/28 19:37:31;;;;;;;;;33.00;30.25;;;;;26.77;38.73;101383.25;4899606;29;45550;-93
2023/06/28 19:39:56;;;;;;;;;32.50;30.25;;;;;26.71;39.07;101377.66;4900516;28;45553;-93
2023/06/28 19:42:21;;;;;;;;;34.75;29.50;;;;;26.71;38.90;101385.66;4900688;28;45415;-92
2023/06/28 19:44:47;;;;;;;;;27.00;26.75;;;;;26.70;39.40;101392.00;4899646;28;45477;-93
2023/06/28 19:47:12;;;;;;;;;31.50;28.75;;;;;26.64;39.45;101386.25;4900618;28;45465;-94
2023/06/28 19:49:38;;;;;;;;;33.00;30.25;;;;;26.61;39.81;101386.53;4900253;28;45617;-93
2023/06/28 19:52:04;;;;;;;;;32.50;30.75;;;;;26.58;40.05;101394.84;4899057;29;45358;-92
2023/06/28 20:18:40;;;;;;;;;33.50;31.00;;;;;26.18;40.93;101399.38;5681965;23;46065;-96
2023/06/28 20:37:35;;;;;;;;;31.00;27.00;;;;;26.01;40.83;101419.63;5325694;23;46119;-95
